Terminal Aerodrome Forecast
Issued by NWS Wilmington, OH

Current Version | Previous Version | Text Only | Print | Product List | Glossary On
Versions: 1 2 3 4 5 6 7 8 9 10 11 12 13 14 15 16 17 18 19 20 21 22 23
144 FTUS41 KILN 232057 AAC TAFDAY TAF AMD KDAY 232057Z 2321/2418 20006KT P6SM -RA SCT007 BKN022 OVC110 FM232300 26008KT P6SM VCSH SCT005 OVC040 FM240300 33008KT P6SM BKN040 FM240800 27008KT P6SM SCT250 FM241400 28012G20KT P6SM SCT040=

USA.gov is the U.S. government's official web portal to all federal, state and local government web resources and services.